Time;durP1;ratioP1;P1;durP2;ratioP2;P2;SDS_P1;SDS_P2;PMS_P1;PMS_P2;Temp;Humidity;BMP_temperature;BMP_pressure;BME280_temperature;BME280_humidity;BME280_pressure;Samples;Min_cycle;Max_cycle;Signal;HPM_P1;HPM_P2
2022/08/10 00:02:35;;;;;;;3.72;2.67;;;20.80;97.50;;;;;;4974621;28;20630;-64
2022/08/10 00:05:03;;;;;;;4.53;2.58;;;20.70;97.50;;;;;;4971393;28;20197;-62
2022/08/10 00:07:29;;;;;;;3.80;2.83;;;20.70;97.70;;;;;;5003693;28;20328;-64
2022/08/10 00:09:55;;;;;;;5.80;3.20;;;20.70;97.80;;;;;;4973744;28;20239;-64
2022/08/10 00:12:21;;;;;;;3.95;2.72;;;20.60;98.00;;;;;;4975507;28;20261;-63
2022/08/10 00:14:47;;;;;;;5.13;3.22;;;20.60;98.10;;;;;;4972355;28;20193;-65
2022/08/10 00:17:13;;;;;;;4.97;2.95;;;20.60;98.20;;;;;;4972644;28;20186;-63
2022/08/10 00:19:39;;;;;;;4.38;3.00;;;20.50;98.40;;;;;;4972926;28;20186;-64
2022/08/10 00:22:04;;;;;;;3.88;3.28;;;20.50;98.50;;;;;;4969496;28;20261;-63
2022/08/10 00:24:30;;;;;;;6.05;3.13;;;20.50;98.60;;;;;;4974361;28;20219;-64
2022/08/10 00:26:56;;;;;;;5.75;3.20;;;20.50;98.70;;;;;;4971739;28;20264;-64
2022/08/10 00:29:22;;;;;;;3.83;3.13;;;20.50;98.80;;;;;;4972912;28;20281;-65
2022/08/10 00:31:47;;;;;;;3.90;3.00;;;20.40;98.90;;;;;;5000267;28;20244;-65
2022/08/10 00:34:13;;;;;;;7.72;3.33;;;20.40;99.00;;;;;;4973984;28;20197;-63
2022/08/10 00:36:39;;;;;;;4.70;3.20;;;20.40;99.20;;;;;;4985541;28;20186;-63
2022/08/10 00:39:05;;;;;;;4.65;3.00;;;20.40;99.30;;;;;;4992578;28;20178;-63
2022/08/10 00:41:31;;;;;;;4.35;3.30;;;20.30;99.40;;;;;;4975260;28;20744;-62
2022/08/10 00:43:57;;;;;;;5.60;3.55;;;20.30;99.60;;;;;;4999860;28;20277;-62
2022/08/10 00:46:22;;;;;;;3.90;3.30;;;20.30;99.70;;;;;;4977406;28;20189;-65
2022/08/10 00:48:48;;;;;;;6.35;3.47;;;20.20;99.80;;;;;;4991994;28;20275;-64
2022/08/10 00:51:15;;;;;;;6.35;3.53;;;20.20;99.90;;;;;;4982696;28;20217;-64
2022/08/10 00:53:41;;;;;;;4.90;3.58;;;20.10;99.90;;;;;;4974708;28;20284;-64
2022/08/10 00:56:08;;;;;;;6.78;3.90;;;20.20;99.90;;;;;;4981218;28;20283;-64
2022/08/10 00:58:35;;;;;;;4.32;3.50;;;20.10;99.90;;;;;;4993623;28;20191;-64
2022/08/10 01:01:01;;;;;;;5.30;3.58;;;20.10;99.90;;;;;;4989920;28;20296;-61
2022/08/10 01:03:27;;;;;;;4.32;3.42;;;20.00;99.90;;;;;;4990419;28;20668;-63
2022/08/10 01:06:24;;;;;;;4.63;3.60;;;20.00;99.90;;;;;;4978753;28;20220;-64
2022/08/10 01:09:10;;;;;;;4.80;3.85;;;20.00;99.90;;;;;;4935730;28;20226;-64
2022/08/10 01:12:08;;;;;;;4.63;3.55;;;20.00;99.90;;;;;;4966196;28;20198;-63
2022/08/10 01:14:40;;;;;;;5.32;3.88;;;19.90;99.90;;;;;;4973048;28;20232;-63
2022/08/10 01:17:23;;;;;;;9.77;4.18;;;19.90;99.90;;;;;;4966140;28;20178;-63
2022/08/10 01:20:01;;;;;;;5.53;3.65;;;19.90;99.90;;;;;;5014488;28;20206;-64
2022/08/10 01:22:45;;;;;;;5.03;4.05;;;19.90;99.90;;;;;;4972635;28;20197;-64
2022/08/10 01:25:36;;;;;;;6.20;3.90;;;19.90;99.90;;;;;;4974521;28;21177;-63
2022/08/10 01:28:30;;;;;;;4.05;3.42;;;19.90;99.90;;;;;;4977353;28;20268;-63
2022/08/10 01:30:59;;;;;;;4.40;3.58;;;19.80;99.90;;;;;;4982787;28;20185;-64
2022/08/10 01:33:31;;;;;;;8.63;4.28;;;19.80;99.90;;;;;;4980194;28;20178;-65
2022/08/10 01:36:04;;;;;;;4.70;3.90;;;19.80;99.90;;;;;;4981558;28;20197;-63
2022/08/10 01:38:39;;;;;;;7.63;3.92;;;19.80;99.90;;;;;;4989527;28;20217;-64
2022/08/10 01:41:15;;;;;;;6.53;4.00;;;19.80;99.90;;;;;;4984389;28;20226;-64
2022/08/10 01:43:49;;;;;;;7.07;4.00;;;19.80;99.90;;;;;;4988483;28;20200;-62
2022/08/10 01:46:18;;;;;;;12.63;4.00;;;19.80;99.90;;;;;;5014310;28;20704;-62
2022/08/10 01:48:49;;;;;;;9.65;4.00;;;19.80;99.90;;;;;;4973707;28;20627;-64
2022/08/10 01:51:26;;;;;;;5.18;4.00;;;19.80;99.90;;;;;;4957924;28;20178;-64
2022/08/10 01:54:02;;;;;;;5.93;3.88;;;19.70;99.90;;;;;;4966088;28;20545;-64
2022/08/10 01:56:31;;;;;;;6.13;4.05;;;19.70;99.90;;;;;;4976959;28;20194;-64
2022/08/10 01:59:06;;;;;;;4.60;3.90;;;19.70;99.90;;;;;;4979466;28;20213;-62
2022/08/10 02:01:41;;;;;;;6.47;3.70;;;19.70;99.90;;;;;;5007652;28;20574;-60
2022/08/10 02:04:09;;;;;;;5.60;3.70;;;19.70;99.90;;;;;;4968005;28;20189;-62
2022/08/10 02:06:46;;;;;;;4.88;3.58;;;19.70;99.90;;;;;;4978029;28;20281;-64
2022/08/10 02:09:16;;;;;;;5.57;3.50;;;19.60;99.90;;;;;;4980960;28;20251;-62
2022/08/10 02:11:43;;;;;;;4.22;3.50;;;19.60;99.90;;;;;;4979801;28;20190;-63
2022/08/10 02:14:12;;;;;;;5.00;3.55;;;19.60;99.90;;;;;;4978203;28;20218;-64
2022/08/10 02:16:41;;;;;;;3.97;3.45;;;19.50;99.90;;;;;;4975084;28;20244;-64
2022/08/10 02:19:11;;;;;;;4.63;3.28;;;19.50;99.90;;;;;;4974163;28;20178;-63
2022/08/10 02:21:41;;;;;;;4.90;3.20;;;19.50;99.90;;;;;;4976113;28;20313;-61
2022/08/10 02:24:11;;;;;;;5.50;3.15;;;19.50;99.90;;;;;;4974198;28;20228;-63
2022/08/10 02:26:39;;;;;;;5.78;3.63;;;19.40;99.90;;;;;;4974914;28;20547;-64
2022/08/10 02:29:07;;;;;;;4.30;3.65;;;19.50;99.90;;;;;;4973959;28;20182;-63
2022/08/10 02:31:34;;;;;;;3.63;3.33;;;19.40;99.90;;;;;;5007427;28;20588;-63
2022/08/10 02:34:02;;;;;;;5.00;3.10;;;19.40;99.90;;;;;;4977781;28;20199;-64
2022/08/10 02:36:31;;;;;;;4.68;3.78;;;19.40;99.90;;;;;;4989581;28;20178;-63
2022/08/10 02:39:02;;;;;;;5.53;3.50;;;19.40;99.90;;;;;;5008682;28;20183;-60
2022/08/10 02:41:39;;;;;;;5.13;3.42;;;19.40;99.90;;;;;;4976291;28;20316;-64
2022/08/10 02:44:15;;;;;;;5.57;3.40;;;19.40;99.90;;;;;;4956239;28;20573;-63
2022/08/10 02:46:50;;;;;;;4.60;3.60;;;19.30;99.90;;;;;;4955993;29;20193;-63
2022/08/10 02:49:21;;;;;;;4.03;3.30;;;19.40;99.90;;;;;;4979706;28;20707;-64
2022/08/10 02:52:01;;;;;;;6.88;3.63;;;19.30;99.90;;;;;;4995080;28;20252;-64
2022/08/10 02:54:31;;;;;;;4.82;3.22;;;19.40;99.90;;;;;;4990125;28;20180;-64
2022/08/10 02:57:18;;;;;;;4.45;3.80;;;19.30;99.90;;;;;;4978181;28;20182;-63
2022/08/10 02:59:48;;;;;;;4.97;3.70;;;19.30;99.90;;;;;;4986770;28;20188;-63
2022/08/10 03:02:42;;;;;;;5.90;4.03;;;19.30;99.90;;;;;;4993694;28;20213;-64
2022/08/10 03:05:11;;;;;;;7.38;3.60;;;19.30;99.90;;;;;;5005126;28;20189;-66
2022/08/10 03:07:46;;;;;;;6.43;3.60;;;19.30;99.90;;;;;;5015091;28;20176;-63
2022/08/10 03:10:19;;;;;;;6.07;3.88;;;19.20;99.90;;;;;;4992445;28;20268;-64
2022/08/10 03:12:49;;;;;;;4.50;3.65;;;19.20;99.90;;;;;;4993990;28;20213;-64
2022/08/10 03:15:17;;;;;;;6.25;4.10;;;19.20;99.90;;;;;;4991303;28;20260;-64
2022/08/10 03:17:45;;;;;;;9.60;3.90;;;19.20;99.90;;;;;;5014205;28;20176;-63
2022/08/10 03:20:14;;;;;;;4.28;3.47;;;19.20;99.90;;;;;;5010566;28;20970;-63
2022/08/10 03:22:41;;;;;;;8.23;3.90;;;19.20;99.90;;;;;;4997491;28;20269;-63
2022/08/10 03:25:11;;;;;;;8.00;4.20;;;19.20;99.90;;;;;;5006601;28;20319;-64
2022/08/10 03:27:39;;;;;;;6.57;4.03;;;19.10;99.90;;;;;;4994740;28;20185;-64
2022/08/10 03:30:06;;;;;;;5.90;3.60;;;19.10;99.90;;;;;;5003743;28;20176;-63
2022/08/10 03:32:33;;;;;;;4.00;3.60;;;19.10;99.90;;;;;;4993264;28;20240;-62
2022/08/10 03:35:00;;;;;;;5.45;3.85;;;19.10;99.90;;;;;;4999866;28;20199;-63
2022/08/10 03:37:29;;;;;;;4.65;3.92;;;19.10;99.90;;;;;;5014527;28;20172;-64
2022/08/10 03:39:55;;;;;;;5.22;3.97;;;19.10;99.90;;;;;;4993962;28;20204;-62
2022/08/10 03:42:23;;;;;;;5.20;3.95;;;19.10;99.90;;;;;;5022347;28;20221;-62
2022/08/10 03:44:50;;;;;;;5.80;4.32;;;19.00;99.90;;;;;;4967719;28;20268;-63
2022/08/10 03:47:18;;;;;;;6.22;4.63;;;19.00;99.90;;;;;;4974685;28;20178;-61
2022/08/10 03:49:47;;;;;;;5.78;4.20;;;19.00;99.90;;;;;;4984052;28;20233;-63
2022/08/10 03:52:17;;;;;;;6.40;4.80;;;19.00;99.90;;;;;;4994031;28;20633;-63
2022/08/10 03:54:43;;;;;;;8.05;5.07;;;19.00;99.90;;;;;;4988827;28;20200;-63
2022/08/10 03:57:10;;;;;;;6.82;4.85;;;19.00;99.90;;;;;;4993380;28;20200;-63
2022/08/10 03:59:36;;;;;;;8.50;5.38;;;19.00;99.90;;;;;;4992566;28;20195;-63
2022/08/10 04:02:05;;;;;;;8.55;5.47;;;19.00;99.90;;;;;;4994394;28;20228;-62
2022/08/10 04:04:31;;;;;;;8.07;5.70;;;18.90;99.90;;;;;;4973900;28;20204;-63
2022/08/10 04:06:58;;;;;;;10.00;5.80;;;18.90;99.90;;;;;;4976886;28;20627;-61
2022/08/10 04:09:32;;;;;;;9.85;5.80;;;18.90;99.90;;;;;;5000969;28;20263;-62
2022/08/10 04:11:58;;;;;;;7.15;5.97;;;18.90;99.90;;;;;;5001557;28;20657;-62
2022/08/10 04:14:24;;;;;;;12.32;6.13;;;18.90;99.90;;;;;;4990552;28;20224;-62
2022/08/10 04:16:51;;;;;;;9.10;6.30;;;18.90;99.90;;;;;;4993753;28;20205;-60
2022/08/10 04:19:18;;;;;;;9.43;6.32;;;18.90;99.90;;;;;;4980053;28;20680;-62
2022/08/10 04:21:56;;;;;;;10.18;6.55;;;18.90;99.90;;;;;;4976274;28;20216;-63
2022/08/10 04:24:25;;;;;;;11.40;6.80;;;18.90;99.90;;;;;;4974351;28;20544;-64
2022/08/10 04:26:51;;;;;;;12.98;7.22;;;18.80;99.90;;;;;;4994133;28;20220;-62
2022/08/10 04:29:17;;;;;;;10.57;7.10;;;18.80;99.90;;;;;;5005633;28;20213;-63
2022/08/10 04:31:45;;;;;;;11.45;7.22;;;18.80;99.90;;;;;;4994058;28;20693;-64
2022/08/10 04:34:13;;;;;;;9.82;7.20;;;18.90;99.90;;;;;;4979089;28;20585;-63
2022/08/10 04:36:39;;;;;;;10.82;7.65;;;18.80;99.90;;;;;;5006887;28;20216;-60
2022/08/10 04:39:05;;;;;;;8.05;6.78;;;18.80;99.90;;;;;;4991135;28;20177;-63
2022/08/10 04:41:32;;;;;;;10.38;7.75;;;18.80;99.90;;;;;;4972330;28;20240;-62
2022/08/10 04:43:59;;;;;;;12.02;7.60;;;18.80;99.90;;;;;;5016014;28;20219;-63
2022/08/10 04:46:24;;;;;;;13.18;7.85;;;18.80;99.90;;;;;;4989260;28;20212;-62
2022/08/10 04:48:50;;;;;;;10.95;7.60;;;18.80;99.90;;;;;;4992763;28;20229;-60
2022/08/10 04:51:16;;;;;;;11.65;7.55;;;18.80;99.90;;;;;;4992276;28;20201;-61
2022/08/10 04:53:42;;;;;;;9.95;7.85;;;18.80;99.90;;;;;;4993934;28;20198;-61
2022/08/10 04:56:08;;;;;;;11.45;8.73;;;18.80;99.90;;;;;;5001692;28;20181;-61
2022/08/10 04:58:35;;;;;;;13.77;8.00;;;18.80;99.90;;;;;;4995991;28;20637;-61
2022/08/10 05:01:01;;;;;;;11.00;8.43;;;18.80;99.90;;;;;;4990832;28;20220;-61
2022/08/10 05:03:28;;;;;;;11.02;8.23;;;18.80;99.90;;;;;;4994458;28;20189;-59
2022/08/10 05:05:54;;;;;;;9.77;7.57;;;18.80;99.90;;;;;;4979654;28;20192;-63
2022/08/10 05:08:19;;;;;;;10.27;7.65;;;18.80;99.90;;;;;;4994665;28;20188;-63
2022/08/10 05:10:45;;;;;;;14.75;7.57;;;18.80;99.90;;;;;;4995578;28;20200;-61
2022/08/10 05:13:11;;;;;;;11.10;7.78;;;18.80;99.90;;;;;;5008092;28;20252;-61
2022/08/10 05:15:37;;;;;;;10.52;7.57;;;18.80;99.90;;;;;;4994965;28;20197;-62
2022/08/10 05:18:02;;;;;;;9.85;7.97;;;18.80;99.90;;;;;;5010936;28;20530;-64
2022/08/10 05:20:29;;;;;;;10.93;8.13;;;18.80;99.90;;;;;;4995178;28;20236;-60
2022/08/10 05:22:54;;;;;;;10.20;8.43;;;18.80;99.90;;;;;;4995639;28;20204;-62
2022/08/10 05:25:20;;;;;;;10.88;7.60;;;18.80;99.90;;;;;;4994638;28;20272;-61
2022/08/10 05:27:46;;;;;;;12.40;8.02;;;18.80;99.90;;;;;;4969777;28;20215;-60
2022/08/10 05:30:17;;;;;;;10.00;7.82;;;18.80;99.90;;;;;;5002716;28;20185;-62
2022/08/10 05:32:43;;;;;;;10.68;7.78;;;18.80;99.90;;;;;;4996035;28;20276;-62
2022/08/10 05:35:09;;;;;;;9.82;7.72;;;18.80;99.90;;;;;;4994191;28;20185;-62
2022/08/10 05:37:35;;;;;;;12.25;8.25;;;18.80;99.90;;;;;;4994271;28;20220;-63
2022/08/10 05:40:04;;;;;;;11.07;8.32;;;18.90;99.90;;;;;;4992655;28;20189;-62
2022/08/10 05:42:30;;;;;;;11.55;8.02;;;18.90;99.90;;;;;;4997293;28;20208;-59
2022/08/10 05:44:56;;;;;;;12.07;8.30;;;18.90;99.90;;;;;;4990875;28;20204;-62
2022/08/10 05:47:22;;;;;;;14.32;8.60;;;18.90;99.90;;;;;;4995111;28;20185;-61
2022/08/10 05:49:49;;;;;;;13.52;8.07;;;19.00;99.90;;;;;;4993448;28;20271;-62
2022/08/10 05:52:17;;;;;;;13.52;9.20;;;19.00;99.90;;;;;;4995538;28;20217;-61
2022/08/10 05:54:43;;;;;;;14.48;8.63;;;19.10;99.90;;;;;;4989009;28;20185;-62
2022/08/10 05:57:16;;;;;;;11.68;7.55;;;19.10;99.90;;;;;;4995530;28;20216;-60
2022/08/10 05:59:57;;;;;;;12.73;8.30;;;19.10;99.90;;;;;;4994268;28;20213;-63
2022/08/10 06:02:29;;;;;;;10.60;8.48;;;19.10;99.90;;;;;;5010403;28;20751;-62
2022/08/10 06:04:59;;;;;;;10.88;8.20;;;19.20;99.90;;;;;;4994890;28;20245;-62
2022/08/10 06:07:27;;;;;;;11.95;8.30;;;19.20;99.90;;;;;;4996875;28;20260;-60
2022/08/10 06:09:55;;;;;;;26.60;8.80;;;19.20;99.90;;;;;;4996053;28;20256;-64
2022/08/10 06:12:22;;;;;;;12.25;8.57;;;19.30;99.90;;;;;;4988056;28;20221;-62
2022/08/10 06:15:02;;;;;;;14.40;8.68;;;19.30;99.90;;;;;;5000562;28;20276;-62
2022/08/10 06:17:29;;;;;;;13.23;8.27;;;19.30;99.90;;;;;;4994738;28;20231;-63
2022/08/10 06:19:59;;;;;;;20.17;8.35;;;19.40;99.90;;;;;;5006538;28;20254;-64
2022/08/10 06:22:31;;;;;;;13.77;8.43;;;19.40;99.90;;;;;;5016515;28;20235;-62
2022/08/10 06:24:59;;;;;;;14.43;8.30;;;19.50;99.90;;;;;;5027371;28;20193;-61
2022/08/10 06:27:25;;;;;;;13.18;8.00;;;19.50;99.90;;;;;;4992695;28;20248;-63
2022/08/10 06:29:52;;;;;;;15.77;8.00;;;19.60;99.90;;;;;;4996849;28;20197;-63
2022/08/10 06:32:24;;;;;;;14.05;9.23;;;19.60;99.90;;;;;;4996402;28;20189;-63
2022/08/10 06:34:53;;;;;;;16.73;8.60;;;19.60;99.90;;;;;;5005551;28;20188;-64
2022/08/10 06:37:23;;;;;;;16.10;7.85;;;19.70;99.90;;;;;;5002913;28;20189;-63
2022/08/10 06:39:49;;;;;;;14.25;7.85;;;19.70;99.90;;;;;;4995166;28;20219;-62
2022/08/10 06:42:30;;;;;;;10.90;8.10;;;19.70;99.90;;;;;;4995700;28;20251;-62
2022/08/10 06:44:58;;;;;;;10.75;7.20;;;19.70;99.90;;;;;;4996981;28;20664;-61
2022/08/10 06:47:55;;;;;;;12.05;7.07;;;19.70;99.90;;;;;;4995939;28;20177;-61
2022/08/10 06:50:38;;;;;;;11.57;7.35;;;19.80;99.90;;;;;;4971472;28;20229;-59
2022/08/10 06:53:12;;;;;;;10.25;6.75;;;19.80;99.90;;;;;;4993575;28;20188;-61
2022/08/10 06:55:41;;;;;;;15.95;7.07;;;19.90;99.90;;;;;;5012589;28;20189;-60
2022/08/10 06:58:08;;;;;;;16.25;7.50;;;19.90;99.90;;;;;;5015327;28;20537;-60
2022/08/10 07:00:36;;;;;;;12.32;6.70;;;19.90;99.90;;;;;;5004597;28;20240;-61
2022/08/10 07:03:08;;;;;;;10.70;6.95;;;20.00;99.90;;;;;;4995559;28;20236;-60
2022/08/10 07:05:38;;;;;;;12.70;7.35;;;20.00;99.90;;;;;;5011117;28;20192;-60
2022/08/10 07:08:04;;;;;;;13.65;7.40;;;20.00;99.90;;;;;;5011986;28;20173;-59
2022/08/10 07:10:31;;;;;;;17.35;6.75;;;20.10;99.90;;;;;;4989803;28;20193;-60
2022/08/10 07:12:59;;;;;;;13.02;7.22;;;20.10;99.90;;;;;;4992718;28;20220;-61
2022/08/10 07:15:26;;;;;;;14.38;7.22;;;20.20;99.90;;;;;;4992382;28;20181;-61
2022/08/10 07:17:53;;;;;;;11.80;6.65;;;20.30;99.90;;;;;;4996150;28;20665;-60
2022/08/10 07:20:23;;;;;;;9.85;6.25;;;20.30;99.90;;;;;;4990365;28;20552;-60
2022/08/10 07:22:52;;;;;;;11.85;6.15;;;20.40;99.90;;;;;;4994694;28;20181;-61
2022/08/10 07:25:26;;;;;;;12.73;6.30;;;20.50;99.90;;;;;;5003203;28;20634;-61
2022/08/10 07:27:55;;;;;;;10.32;5.57;;;20.60;99.90;;;;;;4994370;28;20703;-56
2022/08/10 07:30:21;;;;;;;8.85;5.20;;;20.60;99.90;;;;;;4972262;28;20708;-61
2022/08/10 07:32:51;;;;;;;17.85;5.65;;;20.70;99.90;;;;;;4975300;28;20193;-60
2022/08/10 07:35:20;;;;;;;10.10;5.30;;;20.80;99.90;;;;;;5007613;28;20196;-61
2022/08/10 07:37:48;;;;;;;8.90;5.10;;;20.90;99.90;;;;;;5014726;28;20307;-63
2022/08/10 07:40:18;;;;;;;14.38;5.63;;;21.00;99.90;;;;;;4992972;28;20212;-62
2022/08/10 07:42:46;;;;;;;9.85;5.15;;;21.00;99.90;;;;;;4991109;28;20185;-63
2022/08/10 07:45:12;;;;;;;9.82;5.60;;;21.10;99.90;;;;;;4991466;28;20195;-62
2022/08/10 07:47:54;;;;;;;12.85;5.85;;;21.20;99.90;;;;;;4993704;28;20189;-61
2022/08/10 07:50:24;;;;;;;10.10;5.72;;;21.20;99.90;;;;;;4995868;28;20229;-63
2022/08/10 07:52:54;;;;;;;9.30;5.63;;;21.30;99.90;;;;;;4993267;28;20221;-64
2022/08/10 07:55:20;;;;;;;9.07;5.20;;;21.40;99.90;;;;;;4991355;28;20287;-62
2022/08/10 07:57:58;;;;;;;11.32;6.20;;;21.40;99.90;;;;;;4997708;28;20182;-62
2022/08/10 08:00:26;;;;;;;10.88;6.07;;;21.50;99.90;;;;;;5013889;28;20649;-62
2022/08/10 08:02:55;;;;;;;10.30;5.60;;;21.50;99.90;;;;;;4994232;28;20622;-62
2022/08/10 08:05:27;;;;;;;12.57;6.40;;;21.60;99.90;;;;;;5008343;28;20192;-62
2022/08/10 08:07:56;;;;;;;8.48;5.38;;;21.60;99.90;;;;;;5014000;28;20180;-62
2022/08/10 08:10:25;;;;;;;8.30;5.18;;;21.60;99.90;;;;;;5007700;28;20195;-62
2022/08/10 08:12:53;;;;;;;7.38;4.88;;;21.70;99.90;;;;;;5003523;28;20634;-62
2022/08/10 08:15:22;;;;;;;8.48;5.15;;;21.80;99.90;;;;;;4991078;28;20553;-62
2022/08/10 08:17:50;;;;;;;8.13;4.80;;;21.90;99.90;;;;;;4994098;28;20173;-63
2022/08/10 08:20:17;;;;;;;13.27;4.90;;;21.90;99.90;;;;;;5006370;28;20205;-62
2022/08/10 08:22:45;;;;;;;10.48;4.68;;;22.00;99.90;;;;;;5013843;28;20183;-62
2022/08/10 08:25:12;;;;;;;8.30;4.50;;;22.00;99.90;;;;;;5006620;28;20214;-61
2022/08/10 08:27:40;;;;;;;7.95;4.55;;;22.10;99.90;;;;;;5013426;28;20227;-61
2022/08/10 08:30:07;;;;;;;10.38;4.68;;;22.10;99.90;;;;;;5004457;28;20613;-61
2022/08/10 08:32:36;;;;;;;7.75;4.25;;;22.20;99.90;;;;;;4993484;28;20181;-63
2022/08/10 08:35:08;;;;;;;9.23;4.85;;;22.30;99.90;;;;;;4992354;28;20190;-61
2022/08/10 08:37:36;;;;;;;7.18;4.40;;;22.40;99.90;;;;;;4975018;28;20181;-62
2022/08/10 08:40:12;;;;;;;8.95;4.45;;;22.40;99.90;;;;;;4990626;28;20649;-62
2022/08/10 08:42:51;;;;;;;7.82;4.03;;;22.50;99.90;;;;;;4993124;28;21436;-62
2022/08/10 08:45:40;;;;;;;7.03;3.70;;;22.60;99.90;;;;;;4991915;28;20187;-63
2022/08/10 08:48:30;;;;;;;8.10;3.55;;;22.70;99.90;;;;;;4974260;28;20298;-63
2022/08/10 08:51:32;;;;;;;9.10;3.63;;;22.80;99.90;;;;;;4974772;28;20228;-62
2022/08/10 08:54:21;;;;;;;6.20;3.00;;;22.90;99.90;;;;;;4964966;28;20179;-62
2022/08/10 08:57:17;;;;;;;14.60;3.35;;;23.00;99.90;;;;;;5003783;28;20197;-62
2022/08/10 08:59:57;;;;;;;10.15;3.10;;;23.00;99.90;;;;;;5002150;28;20248;-62
2022/08/10 09:02:53;;;;;;;6.53;2.80;;;23.10;99.90;;;;;;4973704;28;20212;-62
2022/08/10 09:05:32;;;;;;;6.13;2.95;;;23.20;99.90;;;;;;5000662;28;20216;-62
2022/08/10 09:08:32;;;;;;;8.27;3.20;;;23.30;99.90;;;;;;5004738;28;20659;-61
2022/08/10 09:11:03;;;;;;;8.60;3.00;;;23.30;99.90;;;;;;4989184;28;20193;-62
2022/08/10 09:13:53;;;;;;;5.72;2.75;;;23.40;99.90;;;;;;4998148;28;20625;-61
2022/08/10 09:16:43;;;;;;;6.35;2.75;;;23.50;99.90;;;;;;4988467;28;20185;-63
2022/08/10 09:19:28;;;;;;;6.10;2.65;;;23.60;99.90;;;;;;4988494;28;20183;-61
2022/08/10 09:22:02;;;;;;;4.50;2.58;;;23.70;99.60;;;;;;4987671;28;20216;-62
2022/08/10 09:24:34;;;;;;;7.15;2.78;;;23.80;99.20;;;;;;4989917;28;20185;-60
2022/08/10 09:27:08;;;;;;;5.20;2.63;;;23.80;98.70;;;;;;4992703;28;20186;-62
2022/08/10 09:29:51;;;;;;;6.75;2.55;;;23.90;98.50;;;;;;4991170;28;20196;-62
2022/08/10 09:32:32;;;;;;;8.82;2.50;;;24.00;98.30;;;;;;4992371;28;20193;-64
2022/08/10 09:35:05;;;;;;;5.32;2.13;;;24.10;98.00;;;;;;4989866;28;20193;-61
2022/08/10 09:38:05;;;;;;;5.38;2.67;;;24.20;97.70;;;;;;5011792;28;20198;-63
2022/08/10 09:40:45;;;;;;;5.32;2.55;;;24.30;97.30;;;;;;4990506;28;20274;-62
2022/08/10 09:43:17;;;;;;;9.05;2.58;;;24.40;97.00;;;;;;4993503;28;20209;-63
2022/08/10 09:46:01;;;;;;;7.32;2.65;;;24.50;96.70;;;;;;4998176;28;20634;-63
2022/08/10 09:48:49;;;;;;;9.02;2.60;;;24.50;96.30;;;;;;4993156;28;20307;-62
2022/08/10 09:51:45;;;;;;;4.70;2.13;;;24.60;96.20;;;;;;5009640;28;20523;-63
2022/08/10 09:54:40;;;;;;;5.85;2.20;;;24.70;95.90;;;;;;4978137;28;20236;-62
2022/08/10 09:57:43;;;;;;;4.70;2.10;;;24.80;95.40;;;;;;4995055;28;20252;-62
2022/08/10 10:00:22;;;;;;;8.15;2.38;;;24.90;94.70;;;;;;4992461;28;20219;-62
2022/08/10 10:02:53;;;;;;;4.63;1.98;;;25.00;94.30;;;;;;4977261;28;20248;-62
2022/08/10 10:05:31;;;;;;;5.38;1.88;;;25.10;93.80;;;;;;5017117;28;20208;-62
2022/08/10 10:08:21;;;;;;;6.65;1.90;;;25.20;91.90;;;;;;4996568;28;20173;-62
2022/08/10 10:11:01;;;;;;;4.97;2.00;;;25.30;91.90;;;;;;5015151;28;20624;-63
2022/08/10 10:13:37;;;;;;;10.18;2.22;;;25.40;91.80;;;;;;5011761;28;20172;-63
2022/08/10 10:16:42;;;;;;;6.60;1.85;;;25.60;91.00;;;;;;4983296;28;20215;-63
2022/08/10 10:19:27;;;;;;;5.10;2.00;;;25.60;88.90;;;;;;4995579;28;20212;-64
2022/08/10 10:22:02;;;;;;;5.18;1.60;;;25.80;89.00;;;;;;4995213;28;20196;-62
2022/08/10 10:24:54;;;;;;;5.25;1.80;;;25.90;88.20;;;;;;5000930;28;20228;-62
2022/08/10 10:27:47;;;;;;;5.63;1.90;;;26.00;88.00;;;;;;5015777;28;20251;-63
2022/08/10 10:30:15;;;;;;;8.25;1.70;;;26.00;88.10;;;;;;5007138;28;20647;-64
2022/08/10 10:32:59;;;;;;;7.88;2.15;;;26.10;88.30;;;;;;4994538;28;20255;-63
2022/08/10 10:35:35;;;;;;;6.18;2.50;;;26.20;88.10;;;;;;4992155;28;21074;-63
2022/08/10 10:38:03;;;;;;;5.95;1.63;;;26.30;86.50;;;;;;4999923;28;20659;-66
2022/08/10 10:40:40;;;;;;;6.00;1.80;;;26.40;84.30;;;;;;4977019;28;20182;-64
2022/08/10 10:43:41;;;;;;;3.78;1.38;;;26.50;82.20;;;;;;4976711;28;20228;-65
2022/08/10 10:46:51;;;;;;;5.97;2.13;;;26.50;78.80;;;;;;4978754;28;20267;-69
2022/08/10 10:49:37;;;;;;;4.13;1.80;;;26.60;73.90;;;;;;4983713;28;20247;-65
2022/08/10 10:52:16;;;;;;;7.32;1.73;;;26.80;76.60;;;;;;4994621;28;20188;-64
2022/08/10 10:55:04;;;;;;;7.25;1.80;;;26.90;76.20;;;;;;4995750;28;20247;-67
2022/08/10 10:57:53;;;;;;;4.82;1.70;;;27.00;71.90;;;;;;5010680;28;20185;-65
2022/08/10 11:00:25;;;;;;;4.28;1.75;;;27.10;72.80;;;;;;4991884;28;20181;-62
2022/08/10 11:03:30;;;;;;;4.28;1.58;;;27.20;71.50;;;;;;4995817;28;20533;-67
2022/08/10 11:06:31;;;;;;;8.25;1.88;;;27.30;70.00;;;;;;4984511;28;20188;-66
2022/08/10 11:09:02;;;;;;;4.18;1.83;;;27.40;70.50;;;;;;4991115;28;20630;-63
2022/08/10 11:11:35;;;;;;;5.93;1.75;;;27.50;69.60;;;;;;4978098;28;20180;-65
2022/08/10 11:14:25;;;;;;;2.60;1.40;;;27.60;68.40;;;;;;4997934;28;20187;-65
2022/08/10 11:16:58;;;;;;;5.43;1.75;;;27.70;67.00;;;;;;4990442;28;20655;-66
2022/08/10 11:19:40;;;;;;;5.20;1.95;;;27.80;66.10;;;;;;4999130;28;20179;-66
2022/08/10 11:22:18;;;;;;;5.65;1.70;;;27.80;64.60;;;;;;5014406;28;20199;-66
2022/08/10 11:24:47;;;;;;;5.88;2.20;;;27.90;63.70;;;;;;4996611;28;20185;-62
2022/08/10 11:27:20;;;;;;;2.90;1.80;;;27.90;63.60;;;;;;4978423;28;20253;-62
2022/08/10 11:30:11;;;;;;;6.07;1.55;;;28.00;63.70;;;;;;5002565;28;20641;-61
2022/08/10 11:33:04;;;;;;;4.53;1.50;;;28.10;62.50;;;;;;4982270;28;20181;-61
2022/08/10 11:36:03;;;;;;;2.90;1.40;;;28.20;61.10;;;;;;4992283;28;20184;-61
2022/08/10 11:38:39;;;;;;;5.60;1.70;;;28.20;58.50;;;;;;4989542;28;20195;-61
2022/08/10 11:41:37;;;;;;;5.65;1.55;;;28.30;58.80;;;;;;4982361;28;20219;-65
2022/08/10 11:44:12;;;;;;;2.78;1.38;;;28.40;59.60;;;;;;4996708;28;20177;-60
2022/08/10 11:46:57;;;;;;;3.40;1.77;;;28.50;58.70;;;;;;4996707;28;20179;-60
2022/08/10 11:49:34;;;;;;;8.27;1.65;;;28.50;57.80;;;;;;4987938;28;20282;-64
2022/08/10 11:52:12;;;;;;;3.00;1.73;;;28.60;57.50;;;;;;4992260;28;20184;-64
2022/08/10 11:54:52;;;;;;;3.92;1.60;;;28.70;54.80;;;;;;4983105;28;20668;-65
2022/08/10 11:57:19;;;;;;;2.92;1.50;;;28.80;55.30;;;;;;4975064;28;20548;-65
2022/08/10 11:59:57;;;;;;;4.28;1.42;;;28.80;55.00;;;;;;4990908;28;20191;-61
2022/08/10 12:02:38;;;;;;;3.85;1.63;;;28.90;54.80;;;;;;4993215;28;20220;-62
2022/08/10 12:05:30;;;;;;;6.60;1.77;;;29.00;54.50;;;;;;4992078;28;20703;-59
2022/08/10 12:07:59;;;;;;;6.97;1.52;;;29.00;54.60;;;;;;4997330;28;20203;-60
2022/08/10 12:10:26;;;;;;;3.60;1.45;;;29.10;54.90;;;;;;5006211;28;20184;-60
2022/08/10 12:12:54;;;;;;;14.07;2.25;;;29.10;54.80;;;;;;4992786;28;20223;-61
2022/08/10 12:15:40;;;;;;;3.47;1.60;;;29.20;55.10;;;;;;4990710;28;20185;-61
2022/08/10 12:18:16;;;;;;;4.35;1.70;;;29.40;55.10;;;;;;4984798;28;20184;-61
2022/08/10 12:20:47;;;;;;;5.20;1.73;;;29.50;55.10;;;;;;4987177;28;20226;-60
2022/08/10 12:23:21;;;;;;;4.55;1.70;;;29.50;53.90;;;;;;4991931;28;20220;-59
2022/08/10 12:26:06;;;;;;;3.28;1.52;;;29.60;54.00;;;;;;5012118;28;20628;-64
2022/08/10 12:28:50;;;;;;;5.07;1.60;;;29.70;53.80;;;;;;5005485;28;20625;-70
2022/08/10 12:31:28;;;;;;;5.85;1.60;;;29.70;52.60;;;;;;4996545;28;20193;-62
2022/08/10 12:34:06;;;;;;;2.28;1.40;;;29.80;53.00;;;;;;4995525;28;20179;-62
2022/08/10 12:36:40;;;;;;;6.93;1.63;;;29.90;52.90;;;;;;4986108;28;20181;-61
2022/08/10 12:39:12;;;;;;;8.13;1.85;;;29.90;52.70;;;;;;4979064;28;20474;-68
2022/08/10 12:42:05;;;;;;;2.65;1.65;;;29.90;52.60;;;;;;4989135;28;20247;-67
2022/08/10 12:45:00;;;;;;;5.00;1.67;;;30.00;52.50;;;;;;4978493;28;20180;-64
2022/08/10 12:48:07;;;;;;;3.95;1.70;;;30.10;52.10;;;;;;4994782;28;20183;-62
2022/08/10 12:50:42;;;;;;;3.80;1.70;;;30.20;51.80;;;;;;4992317;28;20259;-63
2022/08/10 12:53:38;;;;;;;2.42;1.45;;;30.20;51.60;;;;;;4991128;28;20219;-63
2022/08/10 12:56:05;;;;;;;4.82;1.65;;;30.20;51.60;;;;;;4991347;28;20189;-59
2022/08/10 12:58:33;;;;;;;6.28;2.00;;;30.20;51.30;;;;;;5000694;28;20185;-61
2022/08/10 13:01:04;;;;;;;5.22;1.70;;;30.20;51.20;;;;;;4992233;28;20212;-59
2022/08/10 13:03:32;;;;;;;5.88;1.60;;;30.20;51.00;;;;;;5004231;28;20230;-61
2022/08/10 13:06:04;;;;;;;4.88;1.92;;;30.20;51.20;;;;;;5010148;28;20180;-61
2022/08/10 13:11:22;;;;;;;5.68;1.60;;;30.30;51.20;;;;;;5016995;28;20189;-63
2022/08/10 13:13:51;;;;;;;6.07;1.83;;;30.40;51.20;;;;;;5003251;28;20271;-60
2022/08/10 13:16:21;;;;;;;4.28;1.70;;;30.50;51.10;;;;;;4994150;28;20181;-59
2022/08/10 13:18:50;;;;;;;8.75;1.60;;;30.60;51.10;;;;;;4994930;28;20216;-60
2022/08/10 13:21:16;;;;;;;8.32;1.73;;;30.70;50.80;;;;;;4995582;28;20266;-63